sensor_id;sensor_type;location;lat;lon;timestamp;pressure;altitude;pressure_sealevel;temperature;humidity
16595;BME280;8410;52.532;13.336;2023-03-24T00:00:33;100059.31;;;14.48;84.65
16595;BME280;8410;52.532;13.336;2023-03-24T00:03:00;100054.84;;;14.62;84.34
16595;BME280;8410;52.532;13.336;2023-03-24T00:05:28;100054.97;;;14.53;83.66
16595;BME280;8410;52.532;13.336;2023-03-24T00:07:56;100057.31;;;14.05;85.80
16595;BME280;8410;52.532;13.336;2023-03-24T00:10:29;100061.03;;;13.85;85.43
16595;BME280;8410;52.532;13.336;2023-03-24T00:13:00;100044.78;;;14.38;84.94
16595;BME280;8410;52.532;13.336;2023-03-24T00:15:28;100040.16;;;14.61;83.06
16595;BME280;8410;52.532;13.336;2023-03-24T00:17:55;100037.91;;;14.37;83.92
16595;BME280;8410;52.532;13.336;2023-03-24T00:20:24;100041.34;;;14.39;83.58
16595;BME280;8410;52.532;13.336;2023-03-24T00:22:54;100032.59;;;14.46;83.04
16595;BME280;8410;52.532;13.336;2023-03-24T00:25:25;100036.00;;;14.48;83.60
16595;BME280;8410;52.532;13.336;2023-03-24T00:27:56;100040.63;;;13.58;88.13
16595;BME280;8410;52.532;13.336;2023-03-24T00:30:24;100025.88;;;14.32;84.75
16595;BME280;8410;52.532;13.336;2023-03-24T00:32:52;100028.94;;;14.62;84.03
16595;BME280;8410;52.532;13.336;2023-03-24T00:35:20;100027.25;;;14.58;83.23
16595;BME280;8410;52.532;13.336;2023-03-24T00:37:48;100019.28;;;14.72;82.23
16595;BME280;8410;52.532;13.336;2023-03-24T00:40:18;100018.41;;;14.71;82.78
16595;BME280;8410;52.532;13.336;2023-03-24T00:42:48;100023.28;;;13.69;87.47
16595;BME280;8410;52.532;13.336;2023-03-24T00:45:19;100022.16;;;14.52;83.29
16595;BME280;8410;52.532;13.336;2023-03-24T00:47:48;100015.50;;;14.36;82.85
16595;BME280;8410;52.532;13.336;2023-03-24T00:50:20;100007.84;;;14.26;83.38
16595;BME280;8410;52.532;13.336;2023-03-24T00:52:52;100007.94;;;14.20;84.25
16595;BME280;8410;52.532;13.336;2023-03-24T00:55:20;100007.47;;;14.54;82.92
16595;BME280;8410;52.532;13.336;2023-03-24T00:57:48;100007.28;;;14.65;81.90
16595;BME280;8410;52.532;13.336;2023-03-24T01:00:20;100002.03;;;14.12;82.99
16595;BME280;8410;52.532;13.336;2023-03-24T01:02:52;100005.63;;;13.24;88.09
16595;BME280;8410;52.532;13.336;2023-03-24T01:05:20;100000.13;;;14.23;83.94
16595;BME280;8410;52.532;13.336;2023-03-24T01:07:48;99994.63;;;14.45;83.26
16595;BME280;8410;52.532;13.336;2023-03-24T01:10:19;99991.47;;;14.27;82.33
16595;BME280;8410;52.532;13.336;2023-03-24T01:12:52;99975.91;;;14.27;83.44
16595;BME280;8410;52.532;13.336;2023-03-24T01:15:24;99977.47;;;14.39;83.09
16595;BME280;8410;52.532;13.336;2023-03-24T01:17:51;99967.69;;;14.60;81.91
16595;BME280;8410;52.532;13.336;2023-03-24T01:20:20;99974.03;;;14.39;82.61
16595;BME280;8410;52.532;13.336;2023-03-24T01:22:49;99967.03;;;14.44;81.94
16595;BME280;8410;52.532;13.336;2023-03-24T01:25:19;99964.88;;;14.72;81.68
16595;BME280;8410;52.532;13.336;2023-03-24T01:27:49;99956.31;;;14.68;81.29
16595;BME280;8410;52.532;13.336;2023-03-24T01:30:19;99952.94;;;14.63;81.34
16595;BME280;8410;52.532;13.336;2023-03-24T01:32:48;99946.84;;;14.64;81.68
16595;BME280;8410;52.532;13.336;2023-03-24T01:35:16;99949.66;;;14.50;81.90
16595;BME280;8410;52.532;13.336;2023-03-24T01:37:44;99930.59;;;14.56;82.18
16595;BME280;8410;52.532;13.336;2023-03-24T01:40:16;99931.50;;;14.53;81.82
16595;BME280;8410;52.532;13.336;2023-03-24T01:42:44;99916.56;;;14.69;81.48
16595;BME280;8410;52.532;13.336;2023-03-24T01:45:48;99920.50;;;14.39;82.15
16595;BME280;8410;52.532;13.336;2023-03-24T01:48:21;99905.59;;;14.55;81.34
16595;BME280;8410;52.532;13.336;2023-03-24T01:50:51;99903.72;;;14.63;81.35
16595;BME280;8410;52.532;13.336;2023-03-24T01:53:21;99905.53;;;14.58;81.91
16595;BME280;8410;52.532;13.336;2023-03-24T01:55:49;99907.91;;;14.70;81.40
16595;BME280;8410;52.532;13.336;2023-03-24T01:58:17;99909.81;;;14.61;81.55
16595;BME280;8410;52.532;13.336;2023-03-24T02:00:45;99904.34;;;14.23;82.94
16595;BME280;8410;52.532;13.336;2023-03-24T02:03:16;99902.16;;;14.53;81.88
16595;BME280;8410;52.532;13.336;2023-03-24T02:05:49;99900.22;;;14.66;81.43
16595;BME280;8410;52.532;13.336;2023-03-24T02:08:20;99892.53;;;14.61;81.61
16595;BME280;8410;52.532;13.336;2023-03-24T02:10:50;99882.69;;;14.29;83.40
16595;BME280;8410;52.532;13.336;2023-03-24T02:13:20;99873.75;;;14.47;82.69
16595;BME280;8410;52.532;13.336;2023-03-24T02:15:58;99874.78;;;14.38;82.80
16595;BME280;8410;52.532;13.336;2023-03-24T02:18:36;99868.34;;;14.62;81.93
16595;BME280;8410;52.532;13.336;2023-03-24T02:21:50;99867.13;;;14.80;80.93
16595;BME280;8410;52.532;13.336;2023-03-24T02:27:53;99856.97;;;14.69;81.12
16595;BME280;8410;52.532;13.336;2023-03-24T02:30:43;99850.34;;;14.53;81.50
16595;BME280;8410;52.532;13.336;2023-03-24T02:39:50;99836.72;;;14.90;81.30
16595;BME280;8410;52.532;13.336;2023-03-24T02:42:28;99831.53;;;14.90;80.90
16595;BME280;8410;52.532;13.336;2023-03-24T02:45:07;99834.97;;;14.92;80.44
16595;BME280;8410;52.532;13.336;2023-03-24T02:47:43;99834.75;;;15.03;80.12
16595;BME280;8410;52.532;13.336;2023-03-24T02:50:17;99841.75;;;14.97;80.61
16595;BME280;8410;52.532;13.336;2023-03-24T02:52:51;99847.44;;;14.71;80.74
16595;BME280;8410;52.532;13.336;2023-03-24T02:55:25;99841.28;;;14.77;81.94
16595;BME280;8410;52.532;13.336;2023-03-24T02:57:56;99845.84;;;14.64;83.86
16595;BME280;8410;52.532;13.336;2023-03-24T03:00:30;99834.41;;;14.76;83.40
16595;BME280;8410;52.532;13.336;2023-03-24T03:03:01;99826.47;;;14.84;82.90
16595;BME280;8410;52.532;13.336;2023-03-24T03:05:35;99821.25;;;14.87;83.67
16595;BME280;8410;52.532;13.336;2023-03-24T03:08:08;99818.03;;;14.72;84.25
16595;BME280;8410;52.532;13.336;2023-03-24T03:10:41;99812.13;;;14.66;84.33
16595;BME280;8410;52.532;13.336;2023-03-24T03:13:14;99819.72;;;14.76;83.89
16595;BME280;8410;52.532;13.336;2023-03-24T03:15:45;99810.09;;;14.82;84.13
16595;BME280;8410;52.532;13.336;2023-03-24T03:18:16;99802.19;;;14.88;84.10
16595;BME280;8410;52.532;13.336;2023-03-24T03:20:50;99800.59;;;14.81;84.77
16595;BME280;8410;52.532;13.336;2023-03-24T03:23:22;99803.44;;;14.20;85.60
16595;BME280;8410;52.532;13.336;2023-03-24T03:25:56;99797.31;;;14.72;85.64
16595;BME280;8410;52.532;13.336;2023-03-24T03:28:31;99801.00;;;14.62;85.14
16595;BME280;8410;52.532;13.336;2023-03-24T03:31:02;99783.34;;;14.81;84.33
16595;BME280;8410;52.532;13.336;2023-03-24T03:33:35;99794.88;;;14.65;85.61
16595;BME280;8410;52.532;13.336;2023-03-24T03:36:08;99778.19;;;14.80;84.54
16595;BME280;8410;52.532;13.336;2023-03-24T03:38:44;99779.38;;;14.63;84.48
16595;BME280;8410;52.532;13.336;2023-03-24T03:41:16;99770.16;;;14.47;86.56
16595;BME280;8410;52.532;13.336;2023-03-24T03:43:45;99764.75;;;14.61;84.68
16595;BME280;8410;52.532;13.336;2023-03-24T03:46:14;99760.66;;;14.47;87.25
16595;BME280;8410;52.532;13.336;2023-03-24T03:48:42;99752.56;;;14.64;85.90
16595;BME280;8410;52.532;13.336;2023-03-24T03:51:12;99749.66;;;14.81;84.83
16595;BME280;8410;52.532;13.336;2023-03-24T03:53:45;99749.81;;;14.73;85.02
16595;BME280;8410;52.532;13.336;2023-03-24T03:56:17;99750.75;;;14.69;86.04
16595;BME280;8410;52.532;13.336;2023-03-24T03:58:45;99743.69;;;14.77;84.92
16595;BME280;8410;52.532;13.336;2023-03-24T04:01:16;99748.22;;;14.68;85.04
16595;BME280;8410;52.532;13.336;2023-03-24T04:03:59;99745.25;;;14.85;85.13
16595;BME280;8410;52.532;13.336;2023-03-24T04:06:38;99740.53;;;14.63;86.47
16595;BME280;8410;52.532;13.336;2023-03-24T04:09:17;99734.06;;;14.84;86.92
16595;BME280;8410;52.532;13.336;2023-03-24T04:12:14;99730.94;;;14.68;86.37
16595;BME280;8410;52.532;13.336;2023-03-24T04:15:17;99725.16;;;14.54;86.94
16595;BME280;8410;52.532;13.336;2023-03-24T04:17:58;99717.91;;;14.71;87.35
16595;BME280;8410;52.532;13.336;2023-03-24T04:20:36;99715.69;;;14.95;85.38
16595;BME280;8410;52.532;13.336;2023-03-24T04:23:23;99711.66;;;14.37;88.82
16595;BME280;8410;52.532;13.336;2023-03-24T04:26:02;99713.44;;;14.34;88.94
16595;BME280;8410;52.532;13.336;2023-03-24T04:28:38;99713.78;;;14.61;87.85
16595;BME280;8410;52.532;13.336;2023-03-24T04:31:13;99707.91;;;14.53;88.53
16595;BME280;8410;52.532;13.336;2023-03-24T04:33:47;99698.03;;;14.72;88.17
16595;BME280;8410;52.532;13.336;2023-03-24T04:36:20;99689.69;;;14.98;85.90
16595;BME280;8410;52.532;13.336;2023-03-24T04:38:53;99686.50;;;14.87;86.47
16595;BME280;8410;52.532;13.336;2023-03-24T04:41:25;99687.50;;;14.80;87.20
16595;BME280;8410;52.532;13.336;2023-03-24T04:43:56;99685.34;;;14.98;85.90
16595;BME280;8410;52.532;13.336;2023-03-24T04:46:24;99687.44;;;14.83;86.53
16595;BME280;8410;52.532;13.336;2023-03-24T04:48:52;99673.56;;;14.85;85.63
16595;BME280;8410;52.532;13.336;2023-03-24T04:51:20;99687.50;;;14.80;86.51
16595;BME280;8410;52.532;13.336;2023-03-24T04:53:48;99683.66;;;14.97;85.35
16595;BME280;8410;52.532;13.336;2023-03-24T04:56:27;99670.78;;;14.09;89.79
16595;BME280;8410;52.532;13.336;2023-03-24T04:58:57;99673.19;;;14.20;89.69
16595;BME280;8410;52.532;13.336;2023-03-24T05:01:25;99674.13;;;14.59;87.33
16595;BME280;8410;52.532;13.336;2023-03-24T05:03:56;99675.34;;;14.40;88.46
16595;BME280;8410;52.532;13.336;2023-03-24T05:06:24;99664.81;;;14.49;88.46
16595;BME280;8410;52.532;13.336;2023-03-24T05:08:52;99664.31;;;14.31;87.12
16595;BME280;8410;52.532;13.336;2023-03-24T05:11:22;99659.72;;;14.44;89.92
16595;BME280;8410;52.532;13.336;2023-03-24T05:13:49;99660.59;;;14.87;86.95
16595;BME280;8410;52.532;13.336;2023-03-24T05:16:18;99662.50;;;14.35;87.55
16595;BME280;8410;52.532;13.336;2023-03-24T05:18:46;99659.38;;;14.63;87.35
16595;BME280;8410;52.532;13.336;2023-03-24T05:21:14;99664.94;;;14.43;88.39
16595;BME280;8410;52.532;13.336;2023-03-24T05:23:41;99653.78;;;14.39;89.22
16595;BME280;8410;52.532;13.336;2023-03-24T05:26:09;99657.56;;;15.05;87.01
16595;BME280;8410;52.532;13.336;2023-03-24T05:28:37;99656.41;;;15.18;84.71
16595;BME280;8410;52.532;13.336;2023-03-24T05:31:04;99652.31;;;15.08;85.43
16595;BME280;8410;52.532;13.336;2023-03-24T05:33:33;99651.72;;;14.97;85.54
16595;BME280;8410;52.532;13.336;2023-03-24T05:36:01;99651.75;;;14.94;86.02
16595;BME280;8410;52.532;13.336;2023-03-24T05:38:28;99657.38;;;15.13;85.25
16595;BME280;8410;52.532;13.336;2023-03-24T05:40:56;99651.41;;;15.09;85.53
16595;BME280;8410;52.532;13.336;2023-03-24T05:43:24;99654.38;;;14.55;86.59
16595;BME280;8410;52.532;13.336;2023-03-24T05:45:51;99654.66;;;14.80;86.51
16595;BME280;8410;52.532;13.336;2023-03-24T05:48:19;99655.09;;;14.99;86.58
16595;BME280;8410;52.532;13.336;2023-03-24T05:50:48;99640.34;;;14.64;88.02
16595;BME280;8410;52.532;13.336;2023-03-24T05:53:15;99643.03;;;14.59;86.28
16595;BME280;8410;52.532;13.336;2023-03-24T05:55:44;99643.38;;;14.83;87.33
16595;BME280;8410;52.532;13.336;2023-03-24T05:58:12;99647.78;;;15.16;85.84
16595;BME280;8410;52.532;13.336;2023-03-24T06:00:41;99643.38;;;14.83;87.69
16595;BME280;8410;52.532;13.336;2023-03-24T06:03:09;99640.59;;;14.92;87.68
16595;BME280;8410;52.532;13.336;2023-03-24T06:05:39;99636.44;;;15.22;86.08
16595;BME280;8410;52.532;13.336;2023-03-24T06:08:09;99633.03;;;14.83;88.90
16595;BME280;8410;52.532;13.336;2023-03-24T06:10:36;99626.59;;;15.35;86.53
16595;BME280;8410;52.532;13.336;2023-03-24T06:13:03;99635.47;;;14.89;86.07
16595;BME280;8410;52.532;13.336;2023-03-24T06:15:34;99624.81;;;15.37;86.12
16595;BME280;8410;52.532;13.336;2023-03-24T06:18:02;99637.34;;;14.84;87.32
16595;BME280;8410;52.532;13.336;2023-03-24T06:20:30;99623.66;;;15.14;86.75
16595;BME280;8410;52.532;13.336;2023-03-24T06:22:58;99610.56;;;15.19;86.81
16595;BME280;8410;52.532;13.336;2023-03-24T06:25:27;99604.59;;;15.15;86.75
16595;BME280;8410;52.532;13.336;2023-03-24T06:27:55;99610.50;;;15.22;86.68
16595;BME280;8410;52.532;13.336;2023-03-24T06:30:31;99591.16;;;15.70;84.65
16595;BME280;8410;52.532;13.336;2023-03-24T06:32:58;99598.41;;;15.55;84.35
16595;BME280;8410;52.532;13.336;2023-03-24T06:35:26;99600.22;;;15.17;86.43
16595;BME280;8410;52.532;13.336;2023-03-24T06:37:53;99597.44;;;15.59;85.45
16595;BME280;8410;52.532;13.336;2023-03-24T06:40:21;99600.13;;;15.56;85.11
16595;BME280;8410;52.532;13.336;2023-03-24T06:42:50;99606.38;;;15.82;83.46
16595;BME280;8410;52.532;13.336;2023-03-24T06:45:17;99611.91;;;15.70;85.02
16595;BME280;8410;52.532;13.336;2023-03-24T06:47:45;99610.50;;;15.56;86.20
16595;BME280;8410;52.532;13.336;2023-03-24T06:50:12;99599.50;;;15.81;85.25
16595;BME280;8410;52.532;13.336;2023-03-24T06:52:40;99592.75;;;15.74;85.59
16595;BME280;8410;52.532;13.336;2023-03-24T06:55:08;99597.72;;;15.83;85.68
16595;BME280;8410;52.532;13.336;2023-03-24T06:57:35;99595.66;;;15.94;84.41
16595;BME280;8410;52.532;13.336;2023-03-24T07:00:06;99593.44;;;16.12;84.19
16595;BME280;8410;52.532;13.336;2023-03-24T07:02:35;99582.16;;;15.83;84.89
16595;BME280;8410;52.532;13.336;2023-03-24T07:05:04;99579.00;;;15.72;86.31
16595;BME280;8410;52.532;13.336;2023-03-24T07:07:34;99572.94;;;16.02;85.14
16595;BME280;8410;52.532;13.336;2023-03-24T07:10:05;99578.75;;;15.47;86.79
16595;BME280;8410;52.532;13.336;2023-03-24T07:12:34;99569.22;;;15.47;86.23
16595;BME280;8410;52.532;13.336;2023-03-24T07:15:02;99569.44;;;16.03;85.02
16595;BME280;8410;52.532;13.336;2023-03-24T07:17:32;99557.66;;;16.21;85.31
16595;BME280;8410;52.532;13.336;2023-03-24T07:19:59;99560.25;;;15.92;84.62
16595;BME280;8410;52.532;13.336;2023-03-24T07:22:27;99558.63;;;15.56;86.97
16595;BME280;8410;52.532;13.336;2023-03-24T07:24:54;99556.16;;;16.14;83.18
16595;BME280;8410;52.532;13.336;2023-03-24T07:27:23;99544.44;;;15.70;86.21
16595;BME280;8410;52.532;13.336;2023-03-24T07:29:51;99551.72;;;15.88;85.37
16595;BME280;8410;52.532;13.336;2023-03-24T07:32:18;99547.09;;;15.34;88.50
16595;BME280;8410;52.532;13.336;2023-03-24T07:34:47;99546.34;;;16.24;84.74
16595;BME280;8410;52.532;13.336;2023-03-24T07:37:15;99537.09;;;16.43;82.57
16595;BME280;8410;52.532;13.336;2023-03-24T07:39:42;99531.53;;;16.56;82.24
16595;BME280;8410;52.532;13.336;2023-03-24T07:42:09;99533.78;;;15.48;86.16
16595;BME280;8410;52.532;13.336;2023-03-24T07:44:38;99540.22;;;16.26;86.26
16595;BME280;8410;52.532;13.336;2023-03-24T07:47:06;99526.50;;;15.93;84.08
16595;BME280;8410;52.532;13.336;2023-03-24T07:49:33;99554.94;;;16.26;84.11
16595;BME280;8410;52.532;13.336;2023-03-24T07:52:02;99550.81;;;15.89;85.25
16595;BME280;8410;52.532;13.336;2023-03-24T07:54:32;99548.91;;;15.32;87.42
16595;BME280;8410;52.532;13.336;2023-03-24T07:57:00;99546.97;;;15.40;88.59
16595;BME280;8410;52.532;13.336;2023-03-24T07:59:28;99551.66;;;15.58;90.21
16595;BME280;8410;52.532;13.336;2023-03-24T08:01:55;99542.97;;;15.59;86.38
16595;BME280;8410;52.532;13.336;2023-03-24T08:04:25;99553.72;;;16.09;86.79
16595;BME280;8410;52.532;13.336;2023-03-24T08:06:54;99537.25;;;15.79;87.58
16595;BME280;8410;52.532;13.336;2023-03-24T08:09:23;99548.22;;;16.19;85.84
16595;BME280;8410;52.532;13.336;2023-03-24T08:11:51;99546.63;;;16.15;85.97
16595;BME280;8410;52.532;13.336;2023-03-24T08:14:18;99542.78;;;15.65;88.11
16595;BME280;8410;52.532;13.336;2023-03-24T08:16:46;99536.72;;;15.34;89.83
16595;BME280;8410;52.532;13.336;2023-03-24T08:19:13;99549.19;;;15.21;90.08
16595;BME280;8410;52.532;13.336;2023-03-24T08:21:41;99536.94;;;15.90;88.66
16595;BME280;8410;52.532;13.336;2023-03-24T08:24:08;99547.78;;;15.75;88.70
16595;BME280;8410;52.532;13.336;2023-03-24T08:26:37;99539.47;;;15.60;89.00
16595;BME280;8410;52.532;13.336;2023-03-24T08:29:05;99538.63;;;15.60;90.09
16595;BME280;8410;52.532;13.336;2023-03-24T08:31:33;99546.81;;;15.12;92.35
16595;BME280;8410;52.532;13.336;2023-03-24T08:34:01;99528.72;;;15.43;89.15
16595;BME280;8410;52.532;13.336;2023-03-24T08:36:29;99544.09;;;15.16;91.51
16595;BME280;8410;52.532;13.336;2023-03-24T08:38:57;99517.25;;;15.50;88.66
16595;BME280;8410;52.532;13.336;2023-03-24T08:41:25;99531.22;;;16.08;87.14
16595;BME280;8410;52.532;13.336;2023-03-24T08:44:02;99548.44;;;15.81;86.36
16595;BME280;8410;52.532;13.336;2023-03-24T08:46:33;99548.56;;;14.75;93.13
16595;BME280;8410;52.532;13.336;2023-03-24T08:49:01;99538.81;;;15.54;92.45
16595;BME280;8410;52.532;13.336;2023-03-24T08:51:29;99529.25;;;16.45;86.67
16595;BME280;8410;52.532;13.336;2023-03-24T08:53:57;99519.22;;;16.89;87.68
16595;BME280;8410;52.532;13.336;2023-03-24T08:56:24;99520.34;;;17.57;86.35
16595;BME280;8410;52.532;13.336;2023-03-24T08:58:52;99532.00;;;17.22;84.08
16595;BME280;8410;52.532;13.336;2023-03-24T09:01:21;99536.09;;;17.77;80.20
16595;BME280;8410;52.532;13.336;2023-03-24T09:03:49;99537.16;;;17.72;82.78
16595;BME280;8410;52.532;13.336;2023-03-24T09:06:17;99540.09;;;18.11;80.95
16595;BME280;8410;52.532;13.336;2023-03-24T09:08:44;99543.94;;;18.01;78.38
16595;BME280;8410;52.532;13.336;2023-03-24T09:11:14;99539.59;;;17.76;80.79
16595;BME280;8410;52.532;13.336;2023-03-24T09:13:42;99549.09;;;17.54;80.39
16595;BME280;8410;52.532;13.336;2023-03-24T09:16:09;99535.00;;;17.84;79.66
16595;BME280;8410;52.532;13.336;2023-03-24T09:18:41;99540.78;;;17.42;78.43
16595;BME280;8410;52.532;13.336;2023-03-24T09:21:09;99548.13;;;17.56;80.61
16595;BME280;8410;52.532;13.336;2023-03-24T09:23:37;99541.91;;;18.09;78.21
16595;BME280;8410;52.532;13.336;2023-03-24T09:26:05;99546.69;;;18.20;75.98
16595;BME280;8410;52.532;13.336;2023-03-24T09:28:33;99552.81;;;18.19;76.99
16595;BME280;8410;52.532;13.336;2023-03-24T09:31:03;99565.63;;;18.47;76.30
16595;BME280;8410;52.532;13.336;2023-03-24T09:33:32;99561.47;;;18.65;74.97
16595;BME280;8410;52.532;13.336;2023-03-24T09:36:02;99562.72;;;18.09;77.27
16595;BME280;8410;52.532;13.336;2023-03-24T09:38:30;99570.97;;;18.44;76.75
16595;BME280;8410;52.532;13.336;2023-03-24T09:41:01;99571.50;;;18.52;74.33
16595;BME280;8410;52.532;13.336;2023-03-24T09:43:35;99562.44;;;19.06;74.58
16595;BME280;8410;52.532;13.336;2023-03-24T09:46:08;99566.03;;;18.36;76.44
16595;BME280;8410;52.532;13.336;2023-03-24T09:48:40;99568.06;;;19.17;74.17
16595;BME280;8410;52.532;13.336;2023-03-24T09:51:14;99583.06;;;18.68;75.45
16595;BME280;8410;52.532;13.336;2023-03-24T09:53:48;99582.34;;;18.41;76.78
16595;BME280;8410;52.532;13.336;2023-03-24T09:56:21;99572.69;;;18.21;76.61
16595;BME280;8410;52.532;13.336;2023-03-24T09:58:59;99573.09;;;19.00;74.52
16595;BME280;8410;52.532;13.336;2023-03-24T10:01:28;99578.00;;;18.87;72.82
16595;BME280;8410;52.532;13.336;2023-03-24T10:03:58;99584.75;;;16.98;79.30
16595;BME280;8410;52.532;13.336;2023-03-24T10:06:29;99582.97;;;18.02;76.82
16595;BME280;8410;52.532;13.336;2023-03-24T10:09:08;99572.69;;;18.21;75.28
16595;BME280;8410;52.532;13.336;2023-03-24T10:11:45;99581.16;;;17.79;78.10
16595;BME280;8410;52.532;13.336;2023-03-24T10:14:23;99587.94;;;17.33;78.33
16595;BME280;8410;52.532;13.336;2023-03-24T10:16:59;99588.50;;;17.43;77.23
16595;BME280;8410;52.532;13.336;2023-03-24T10:19:38;99588.34;;;17.21;77.14
16595;BME280;8410;52.532;13.336;2023-03-24T10:22:13;99582.00;;;18.05;74.22
16595;BME280;8410;52.532;13.336;2023-03-24T10:24:46;99589.72;;;16.50;78.89
16595;BME280;8410;52.532;13.336;2023-03-24T10:27:21;99569.88;;;17.80;75.22
16595;BME280;8410;52.532;13.336;2023-03-24T10:29:53;99578.13;;;17.67;74.73
16595;BME280;8410;52.532;13.336;2023-03-24T10:32:28;99574.19;;;18.28;73.95
16595;BME280;8410;52.532;13.336;2023-03-24T10:35:00;99576.53;;;18.80;71.65
16595;BME280;8410;52.532;13.336;2023-03-24T10:37:36;99569.06;;;19.35;70.83
16595;BME280;8410;52.532;13.336;2023-03-24T10:40:12;99577.50;;;18.78;72.50
16595;BME280;8410;52.532;13.336;2023-03-24T10:42:42;99576.66;;;18.77;71.24
16595;BME280;8410;52.532;13.336;2023-03-24T10:45:11;99588.38;;;18.65;71.89
16595;BME280;8410;52.532;13.336;2023-03-24T10:47:40;99582.19;;;18.46;72.71
16595;BME280;8410;52.532;13.336;2023-03-24T10:50:09;99585.72;;;17.48;75.64
16595;BME280;8410;52.532;13.336;2023-03-24T10:52:45;99580.84;;;17.38;74.99
16595;BME280;8410;52.532;13.336;2023-03-24T10:55:15;99585.72;;;17.98;73.39
16595;BME280;8410;52.532;13.336;2023-03-24T10:57:45;99589.41;;;17.92;74.60
16595;BME280;8410;52.532;13.336;2023-03-24T11:00:18;99591.06;;;18.64;71.54
16595;BME280;8410;52.532;13.336;2023-03-24T11:02:55;99589.56;;;18.35;72.79
16595;BME280;8410;52.532;13.336;2023-03-24T11:05:26;99579.41;;;18.72;70.72
16595;BME280;8410;52.532;13.336;2023-03-24T11:08:11;99589.09;;;18.47;70.45
16595;BME280;8410;52.532;13.336;2023-03-24T11:10:39;99597.06;;;18.20;72.74
16595;BME280;8410;52.532;13.336;2023-03-24T11:13:16;99601.50;;;17.68;73.76
16595;BME280;8410;52.532;13.336;2023-03-24T11:15:56;99606.56;;;18.45;71.16
16595;BME280;8410;52.532;13.336;2023-03-24T11:18:30;99609.56;;;19.02;69.57
16595;BME280;8410;52.532;13.336;2023-03-24T11:20:59;99609.88;;;18.01;72.55
16595;BME280;8410;52.532;13.336;2023-03-24T11:23:32;99589.28;;;19.30;69.37
16595;BME280;8410;52.532;13.336;2023-03-24T11:26:05;99579.56;;;19.54;67.76
16595;BME280;8410;52.532;13.336;2023-03-24T11:28:37;99585.66;;;19.53;68.65
16595;BME280;8410;52.532;13.336;2023-03-24T11:31:08;99607.00;;;19.43;68.78
16595;BME280;8410;52.532;13.336;2023-03-24T11:33:42;99600.34;;;18.02;71.35
16595;BME280;8410;52.532;13.336;2023-03-24T11:36:35;99602.06;;;18.94;68.75
16595;BME280;8410;52.532;13.336;2023-03-24T11:39:10;99595.38;;;19.29;68.44
16595;BME280;8410;52.532;13.336;2023-03-24T11:41:41;99593.53;;;18.21;70.78
16595;BME280;8410;52.532;13.336;2023-03-24T11:44:17;99593.47;;;19.12;69.61
16595;BME280;8410;52.532;13.336;2023-03-24T11:46:49;99595.88;;;18.97;69.23
16595;BME280;8410;52.532;13.336;2023-03-24T11:49:20;99606.25;;;19.18;68.95
16595;BME280;8410;52.532;13.336;2023-03-24T11:51:51;99606.81;;;18.61;68.47
16595;BME280;8410;52.532;13.336;2023-03-24T11:54:23;99604.91;;;18.88;68.37
16595;BME280;8410;52.532;13.336;2023-03-24T11:56:58;99612.81;;;19.49;67.58
16595;BME280;8410;52.532;13.336;2023-03-24T11:59:31;99610.44;;;18.57;69.22
16595;BME280;8410;52.532;13.336;2023-03-24T12:02:11;99618.38;;;19.42;66.39
16595;BME280;8410;52.532;13.336;2023-03-24T12:04:47;99608.13;;;19.78;66.94
16595;BME280;8410;52.532;13.336;2023-03-24T12:07:36;99602.41;;;20.28;64.22
16595;BME280;8410;52.532;13.336;2023-03-24T12:10:16;99592.53;;;20.16;65.17
16595;BME280;8410;52.532;13.336;2023-03-24T12:12:52;99591.94;;;20.09;65.41
16595;BME280;8410;52.532;13.336;2023-03-24T12:15:33;99596.50;;;19.44;64.99
16595;BME280;8410;52.532;13.336;2023-03-24T12:18:13;99616.56;;;19.01;66.92
16595;BME280;8410;52.532;13.336;2023-03-24T12:20:50;99606.78;;;19.27;67.13
16595;BME280;8410;52.532;13.336;2023-03-24T12:23:25;99606.31;;;19.59;65.27
16595;BME280;8410;52.532;13.336;2023-03-24T12:26:07;99623.09;;;18.89;66.37
16595;BME280;8410;52.532;13.336;2023-03-24T12:28:50;99622.47;;;19.05;66.09
16595;BME280;8410;52.532;13.336;2023-03-24T12:31:40;99624.41;;;19.22;65.39
16595;BME280;8410;52.532;13.336;2023-03-24T12:34:28;99637.91;;;18.89;64.87
16595;BME280;8410;52.532;13.336;2023-03-24T12:37:05;99633.84;;;18.11;66.21
16595;BME280;8410;52.532;13.336;2023-03-24T12:39:41;99637.59;;;18.75;64.90
16595;BME280;8410;52.532;13.336;2023-03-24T12:42:16;99630.22;;;18.39;64.68
16595;BME280;8410;52.532;13.336;2023-03-24T12:45:01;99626.38;;;18.25;63.66
16595;BME280;8410;52.532;13.336;2023-03-24T12:47:53;99617.50;;;17.82;64.88
16595;BME280;8410;52.532;13.336;2023-03-24T12:50:35;99608.03;;;17.80;65.47
16595;BME280;8410;52.532;13.336;2023-03-24T12:53:12;99601.47;;;17.95;63.49
16595;BME280;8410;52.532;13.336;2023-03-24T12:55:44;99618.34;;;18.08;63.74
16595;BME280;8410;52.532;13.336;2023-03-24T12:58:19;99624.69;;;18.24;62.77
16595;BME280;8410;52.532;13.336;2023-03-24T13:00:56;99628.84;;;18.52;62.50
16595;BME280;8410;52.532;13.336;2023-03-24T13:03:29;99630.47;;;18.33;62.96
16595;BME280;8410;52.532;13.336;2023-03-24T13:06:10;99634.97;;;17.80;64.09
16595;BME280;8410;52.532;13.336;2023-03-24T13:08:48;99635.06;;;18.26;62.97
16595;BME280;8410;52.532;13.336;2023-03-24T13:11:24;99628.56;;;18.60;63.07
16595;BME280;8410;52.532;13.336;2023-03-24T13:14:00;99638.69;;;18.91;62.46
16595;BME280;8410;52.532;13.336;2023-03-24T13:16:33;99633.84;;;18.58;63.74
16595;BME280;8410;52.532;13.336;2023-03-24T13:19:03;99653.34;;;17.74;64.28
16595;BME280;8410;52.532;13.336;2023-03-24T13:21:33;99646.78;;;17.37;64.31
16595;BME280;8410;52.532;13.336;2023-03-24T13:24:06;99643.13;;;17.95;62.35
16595;BME280;8410;52.532;13.336;2023-03-24T13:26:39;99637.03;;;17.69;61.56
16595;BME280;8410;52.532;13.336;2023-03-24T13:29:34;99631.41;;;17.56;61.19
16595;BME280;8410;52.532;13.336;2023-03-24T13:32:24;99646.59;;;17.17;61.31
16595;BME280;8410;52.532;13.336;2023-03-24T13:34:57;99655.69;;;17.30;61.97